Time;durP1;ratioP1;P1;durP2;ratioP2;P2;SDS_P1;SDS_P2;PMS_P1;PMS_P2;Temp;Humidity;BMP_temperature;BMP_pressure;BME280_temperature;BME280_humidity;BME280_pressure;Samples;Min_cycle;Max_cycle;Signal;HPM_P1;HPM_P2
2023/09/30 00:00:47;;;;;;;11.90;4.68;;;11.10;99.90;;;;;;5070186;28;20040;-77
2023/09/30 00:03:12;;;;;;;11.70;4.85;;;11.10;99.90;;;;;;5051693;28;20029;-77
2023/09/30 00:05:39;;;;;;;12.10;5.03;;;11.00;99.90;;;;;;5052430;28;20026;-77
2023/09/30 00:08:06;;;;;;;16.08;6.38;;;11.00;99.90;;;;;;5051591;28;20131;-76
2023/09/30 00:10:32;;;;;;;11.82;5.53;;;11.00;99.90;;;;;;5069984;28;20035;-76
2023/09/30 00:12:58;;;;;;;11.52;5.10;;;11.00;99.90;;;;;;5069653;28;20024;-76
2023/09/30 00:15:24;;;;;;;9.85;5.40;;;11.00;99.90;;;;;;5070094;28;20101;-76
2023/09/30 00:17:50;;;;;;;10.50;4.68;;;10.90;99.90;;;;;;5069743;28;20129;-77
2023/09/30 00:20:17;;;;;;;9.13;4.43;;;10.90;99.90;;;;;;5069915;28;20040;-75
2023/09/30 00:22:43;;;;;;;11.05;4.82;;;10.90;99.90;;;;;;5070080;28;20424;-75
2023/09/30 00:25:09;;;;;;;8.82;4.93;;;10.80;99.90;;;;;;5069348;28;20039;-76
2023/09/30 00:27:36;;;;;;;10.48;4.82;;;10.90;99.90;;;;;;5069689;28;20045;-75
2023/09/30 00:30:01;;;;;;;13.10;4.75;;;10.80;99.90;;;;;;5069633;28;20036;-76
2023/09/30 00:32:28;;;;;;;11.65;4.70;;;10.80;99.90;;;;;;5069661;28;20029;-76
2023/09/30 00:34:54;;;;;;;11.45;5.65;;;10.80;99.90;;;;;;5069089;28;20031;-77
2023/09/30 00:37:20;;;;;;;9.18;4.18;;;10.80;99.90;;;;;;5055081;28;20474;-77
2023/09/30 00:39:46;;;;;;;9.25;4.72;;;10.70;99.90;;;;;;5055548;28;20032;-77
2023/09/30 00:42:12;;;;;;;8.68;4.63;;;10.70;99.90;;;;;;5072852;28;20601;-77
2023/09/30 00:44:38;;;;;;;7.45;4.50;;;10.70;99.90;;;;;;5073887;28;20021;-77
2023/09/30 00:47:05;;;;;;;10.70;4.20;;;10.70;99.90;;;;;;5072962;28;20071;-77
2023/09/30 00:49:32;;;;;;;9.43;5.20;;;10.70;99.90;;;;;;5073744;28;20410;-77
2023/09/30 00:51:59;;;;;;;7.45;3.95;;;10.70;99.90;;;;;;5073097;28;20032;-77
2023/09/30 00:54:26;;;;;;;9.35;4.57;;;10.70;99.90;;;;;;5073581;28;20035;-77
2023/09/30 00:56:55;;;;;;;9.68;4.50;;;10.70;99.90;;;;;;5073424;28;20443;-77
2023/09/30 00:59:22;;;;;;;10.63;4.25;;;10.70;99.90;;;;;;5073635;28;20452;-77
2023/09/30 01:01:48;;;;;;;9.30;3.85;;;10.60;99.90;;;;;;5073676;28;20025;-76
2023/09/30 01:04:14;;;;;;;9.30;4.05;;;10.60;99.90;;;;;;5072938;28;20036;-77
2023/09/30 01:06:40;;;;;;;10.70;4.20;;;10.60;99.90;;;;;;5073421;28;20032;-76
2023/09/30 01:09:08;;;;;;;10.95;4.15;;;10.60;99.90;;;;;;5072694;28;20044;-77
2023/09/30 01:11:33;;;;;;;10.55;3.72;;;10.50;99.90;;;;;;5073253;28;20021;-77
2023/09/30 01:13:59;;;;;;;5.22;3.13;;;10.50;99.90;;;;;;5055104;28;20031;-77
2023/09/30 01:16:25;;;;;;;8.35;3.65;;;10.50;99.90;;;;;;5073064;28;20025;-77
2023/09/30 01:18:50;;;;;;;7.65;3.53;;;10.50;99.90;;;;;;5073208;28;20489;-77
2023/09/30 01:21:18;;;;;;;11.15;4.32;;;10.50;99.90;;;;;;5072627;28;20127;-77
2023/09/30 01:23:46;;;;;;;13.35;4.40;;;10.40;99.90;;;;;;5055445;28;20077;-76
2023/09/30 01:26:12;;;;;;;11.02;4.28;;;10.40;99.90;;;;;;5072692;28;20034;-76
2023/09/30 01:28:39;;;;;;;7.38;3.65;;;10.30;99.90;;;;;;5054793;28;20479;-76
2023/09/30 01:31:05;;;;;;;11.13;4.00;;;10.20;99.90;;;;;;5072541;28;20021;-75
2023/09/30 01:33:32;;;;;;;10.35;4.75;;;10.20;99.90;;;;;;5072674;28;20043;-78
2023/09/30 01:35:59;;;;;;;7.88;3.53;;;10.10;99.90;;;;;;5072467;28;20024;-76
2023/09/30 01:38:25;;;;;;;13.77;4.65;;;10.10;99.90;;;;;;5072768;28;20038;-76
2023/09/30 01:40:51;;;;;;;9.65;4.50;;;10.10;99.90;;;;;;5073030;28;20108;-76
2023/09/30 01:43:17;;;;;;;10.48;4.10;;;10.00;99.90;;;;;;5072238;28;20084;-76
2023/09/30 01:45:44;;;;;;;8.80;3.53;;;10.00;99.90;;;;;;5072781;28;20032;-77
2023/09/30 01:48:11;;;;;;;9.43;3.78;;;10.00;99.90;;;;;;5070860;28;20152;-77
2023/09/30 01:50:39;;;;;;;6.15;3.53;;;10.00;99.90;;;;;;5072381;28;20029;-77
2023/09/30 01:53:09;;;;;;;11.90;4.03;;;10.00;99.90;;;;;;5071937;28;20534;-77
2023/09/30 01:55:35;;;;;;;9.75;3.65;;;10.00;99.90;;;;;;5072470;28;20040;-77
2023/09/30 01:58:02;;;;;;;8.77;3.80;;;10.00;99.90;;;;;;5071713;28;20070;-77
2023/09/30 02:00:28;;;;;;;10.82;4.10;;;10.00;99.90;;;;;;5072345;28;20131;-77
2023/09/30 02:02:55;;;;;;;9.18;5.18;;;10.00;99.90;;;;;;5054591;28;20031;-76
2023/09/30 02:05:22;;;;;;;7.93;4.18;;;9.90;99.90;;;;;;5072007;28;20052;-77
2023/09/30 02:07:48;;;;;;;10.57;4.68;;;10.00;99.90;;;;;;5072000;28;20420;-77
2023/09/30 02:10:14;;;;;;;15.00;4.53;;;9.90;99.90;;;;;;5071705;28;20025;-77
2023/09/30 02:12:40;;;;;;;10.13;4.53;;;10.00;99.90;;;;;;5071907;28;20093;-77
2023/09/30 02:15:07;;;;;;;7.03;3.47;;;10.00;99.90;;;;;;5071380;28;20024;-77
2023/09/30 02:17:33;;;;;;;9.18;4.40;;;9.90;99.90;;;;;;5071982;28;20056;-76
2023/09/30 02:20:01;;;;;;;6.10;3.80;;;9.90;99.90;;;;;;5072403;28;20078;-78
2023/09/30 02:22:28;;;;;;;9.63;4.15;;;9.90;99.90;;;;;;5054121;28;20025;-77
2023/09/30 02:24:54;;;;;;;8.73;3.50;;;9.80;99.90;;;;;;5072178;28;20040;-76
2023/09/30 02:27:20;;;;;;;7.18;3.42;;;9.90;99.90;;;;;;5071384;28;20033;-77
2023/09/30 02:29:45;;;;;;;7.55;3.42;;;9.90;99.90;;;;;;5072542;28;20480;-77
2023/09/30 02:32:13;;;;;;;8.00;3.70;;;9.90;99.90;;;;;;5071265;28;20020;-77
2023/09/30 02:34:39;;;;;;;8.82;4.00;;;9.80;99.90;;;;;;5071946;28;20028;-77
2023/09/30 02:37:05;;;;;;;7.22;3.55;;;9.90;99.90;;;;;;5053054;28;20055;-77
2023/09/30 02:39:31;;;;;;;7.70;3.35;;;9.90;99.90;;;;;;5071744;28;20031;-77
2023/09/30 02:41:56;;;;;;;8.40;3.40;;;9.80;99.90;;;;;;5071611;28;20024;-77
2023/09/30 02:44:22;;;;;;;9.23;3.53;;;9.80;99.90;;;;;;5070755;28;20059;-76
2023/09/30 02:46:48;;;;;;;10.65;3.58;;;9.80;99.90;;;;;;5071491;28;20059;-77
2023/09/30 02:49:13;;;;;;;7.85;3.35;;;9.90;99.90;;;;;;5071072;28;20028;-77
2023/09/30 02:51:39;;;;;;;12.27;3.83;;;9.90;99.90;;;;;;5071312;28;20017;-77
2023/09/30 02:54:05;;;;;;;5.18;2.95;;;10.00;99.90;;;;;;5070848;28;20100;-78
2023/09/30 02:56:31;;;;;;;6.47;3.25;;;10.00;99.90;;;;;;5071466;28;20455;-78
2023/09/30 02:58:59;;;;;;;7.03;3.03;;;9.90;99.90;;;;;;5070432;28;20032;-76
2023/09/30 03:01:26;;;;;;;9.93;2.88;;;9.90;99.90;;;;;;5070730;28;20439;-76
2023/09/30 03:03:52;;;;;;;6.25;2.88;;;9.90;99.90;;;;;;5071054;28;20021;-76
2023/09/30 03:06:18;;;;;;;8.13;3.10;;;10.00;99.90;;;;;;5070253;28;20036;-77
2023/09/30 03:08:44;;;;;;;8.55;2.95;;;10.00;99.90;;;;;;5070934;28;20475;-76
2023/09/30 03:11:10;;;;;;;6.78;2.50;;;10.10;99.90;;;;;;5070402;28;20099;-77
2023/09/30 03:13:37;;;;;;;6.65;2.95;;;10.10;99.90;;;;;;5052789;28;20032;-77
2023/09/30 03:16:03;;;;;;;5.30;2.80;;;10.10;99.90;;;;;;5070234;28;20036;-78
2023/09/30 03:18:30;;;;;;;9.02;3.13;;;10.20;99.90;;;;;;5070841;28;20075;-77
2023/09/30 03:21:08;;;;;;;7.72;3.28;;;10.30;99.90;;;;;;5070913;28;20496;-77
2023/09/30 03:23:35;;;;;;;4.22;2.60;;;10.30;99.90;;;;;;5071112;28;20098;-76
2023/09/30 03:26:00;;;;;;;5.05;2.80;;;10.30;99.90;;;;;;5070780;28;20378;-76
2023/09/30 03:28:29;;;;;;;6.60;3.00;;;10.30;99.90;;;;;;5070285;28;20032;-76
2023/09/30 03:30:56;;;;;;;7.22;3.42;;;10.30;99.90;;;;;;5070893;28;20068;-75
2023/09/30 03:33:22;;;;;;;6.53;3.00;;;10.30;99.90;;;;;;5070325;28;20031;-77
2023/09/30 03:35:48;;;;;;;6.35;2.55;;;10.40;99.90;;;;;;5071286;28;20020;-76
2023/09/30 03:38:14;;;;;;;6.63;2.92;;;10.40;99.90;;;;;;5070372;28;20028;-77
2023/09/30 03:40:47;;;;;;;7.85;3.03;;;10.40;99.90;;;;;;5071281;28;20035;-76
2023/09/30 03:43:14;;;;;;;7.60;3.85;;;10.30;99.90;;;;;;5052776;28;20124;-77
2023/09/30 03:45:41;;;;;;;5.50;2.65;;;10.30;99.90;;;;;;5070902;28;20028;-76
2023/09/30 03:48:07;;;;;;;8.63;3.05;;;10.30;99.90;;;;;;5069818;28;20505;-77
2023/09/30 03:50:33;;;;;;;8.43;3.13;;;10.30;99.90;;;;;;5070325;28;20040;-77
2023/09/30 03:53:04;;;;;;;6.97;2.97;;;10.30;99.90;;;;;;5070727;28;20492;-77
2023/09/30 03:55:31;;;;;;;9.02;2.60;;;10.30;99.90;;;;;;5070508;28;20060;-76
2023/09/30 03:57:57;;;;;;;5.60;2.65;;;10.20;99.90;;;;;;5069850;28;20037;-76
2023/09/30 04:00:24;;;;;;;6.75;3.13;;;10.20;99.90;;;;;;5069992;28;20048;-76
2023/09/30 04:02:53;;;;;;;8.40;3.03;;;10.20;99.90;;;;;;5070342;28;20119;-76
2023/09/30 04:05:24;;;;;;;6.20;2.80;;;10.30;99.90;;;;;;5069648;28;20443;-76
2023/09/30 04:07:50;;;;;;;7.70;2.83;;;10.30;99.90;;;;;;5070118;28;20389;-76
2023/09/30 04:10:17;;;;;;;6.30;2.80;;;10.30;99.90;;;;;;5071222;28;20116;-75
2023/09/30 04:12:43;;;;;;;4.55;2.63;;;10.30;99.90;;;;;;5074383;28;20055;-76
2023/09/30 04:15:11;;;;;;;9.98;3.22;;;10.20;99.90;;;;;;5073575;28;20108;-77
2023/09/30 04:17:38;;;;;;;5.80;3.08;;;10.30;99.90;;;;;;5074100;28;20032;-76
2023/09/30 04:20:08;;;;;;;7.13;2.85;;;10.20;99.90;;;;;;5074112;28;20462;-76
2023/09/30 04:22:35;;;;;;;11.52;3.78;;;10.20;99.90;;;;;;5074212;28;20035;-76
2023/09/30 04:25:00;;;;;;;5.63;2.80;;;10.20;99.90;;;;;;5073870;28;20021;-75
2023/09/30 04:27:26;;;;;;;9.73;2.80;;;10.20;99.90;;;;;;5073454;28;20150;-76
2023/09/30 04:29:53;;;;;;;7.78;2.97;;;10.20;99.90;;;;;;5073749;28;20040;-76
2023/09/30 04:32:19;;;;;;;5.80;2.83;;;10.20;99.90;;;;;;5073370;28;20020;-76
2023/09/30 04:34:46;;;;;;;7.43;2.53;;;10.20;99.90;;;;;;5073766;28;20416;-76
2023/09/30 04:37:13;;;;;;;10.23;3.28;;;10.20;99.90;;;;;;5073368;28;20266;-76
2023/09/30 04:39:39;;;;;;;6.93;2.90;;;10.20;99.90;;;;;;5073663;28;20091;-76
2023/09/30 04:42:05;;;;;;;5.82;2.90;;;10.20;99.90;;;;;;5073977;28;20029;-75
2023/09/30 04:44:31;;;;;;;4.22;2.67;;;10.20;99.90;;;;;;5073032;28;20028;-76
2023/09/30 04:46:58;;;;;;;7.07;3.08;;;10.10;99.90;;;;;;5073257;28;20048;-76
2023/09/30 04:49:24;;;;;;;7.00;2.80;;;10.10;99.90;;;;;;5073321;28;20055;-76
2023/09/30 04:51:50;;;;;;;6.25;3.03;;;10.10;99.90;;;;;;5073687;28;20035;-75
2023/09/30 04:54:15;;;;;;;6.65;2.90;;;10.10;99.90;;;;;;5073140;28;20025;-76
2023/09/30 04:56:41;;;;;;;6.03;2.85;;;10.10;99.90;;;;;;5073592;28;20095;-76
2023/09/30 04:59:07;;;;;;;7.25;2.70;;;10.00;99.90;;;;;;5055505;28;20067;-76
2023/09/30 05:01:33;;;;;;;8.65;3.45;;;10.10;99.90;;;;;;5073821;28;20094;-75
2023/09/30 05:03:59;;;;;;;4.90;2.80;;;10.00;99.90;;;;;;5073839;28;20024;-76
2023/09/30 05:06:24;;;;;;;6.63;2.60;;;10.00;99.90;;;;;;5072689;28;20355;-76
2023/09/30 05:08:50;;;;;;;7.57;2.53;;;10.10;99.90;;;;;;5055291;28;20032;-76
2023/09/30 05:11:16;;;;;;;9.27;4.03;;;10.10;99.90;;;;;;5054789;28;20039;-76
2023/09/30 05:13:42;;;;;;;9.57;3.35;;;10.10;99.90;;;;;;5073448;28;20075;-76
2023/09/30 05:16:07;;;;;;;8.07;3.53;;;10.10;99.90;;;;;;5073226;28;20081;-77
2023/09/30 05:18:33;;;;;;;8.93;2.90;;;10.10;99.90;;;;;;5072746;28;20032;-76
2023/09/30 05:21:00;;;;;;;7.03;3.83;;;10.10;99.90;;;;;;5072812;28;20029;-76
2023/09/30 05:23:25;;;;;;;12.05;4.47;;;10.10;99.90;;;;;;5072654;28;20025;-76
2023/09/30 05:25:52;;;;;;;12.18;4.75;;;10.10;99.90;;;;;;5055023;28;20020;-76
2023/09/30 05:28:20;;;;;;;9.98;4.18;;;10.10;99.90;;;;;;5072426;28;20032;-76
2023/09/30 05:30:46;;;;;;;7.97;4.00;;;10.10;99.90;;;;;;5055061;28;20037;-76
2023/09/30 05:33:14;;;;;;;10.88;4.18;;;10.10;99.90;;;;;;5072315;28;20493;-77
2023/09/30 05:35:41;;;;;;;8.35;4.15;;;10.10;99.90;;;;;;5072991;28;20052;-76
2023/09/30 05:38:07;;;;;;;11.98;5.00;;;10.10;99.90;;;;;;5072677;28;20032;-75
2023/09/30 05:40:33;;;;;;;11.27;4.40;;;10.10;99.90;;;;;;5072338;28;20104;-76
2023/09/30 05:42:59;;;;;;;10.55;3.63;;;10.10;99.90;;;;;;5072860;28;20059;-77
2023/09/30 05:45:26;;;;;;;9.05;4.00;;;10.10;99.90;;;;;;5072318;28;20086;-77
2023/09/30 05:47:54;;;;;;;9.02;3.83;;;10.10;99.90;;;;;;5072834;28;20137;-77
2023/09/30 05:50:26;;;;;;;8.73;4.03;;;10.10;99.90;;;;;;5072216;28;20032;-77
2023/09/30 05:52:54;;;;;;;8.73;3.50;;;10.10;99.90;;;;;;5072874;28;20059;-76
2023/09/30 05:55:20;;;;;;;7.78;3.65;;;10.10;99.90;;;;;;5072350;28;20111;-77
2023/09/30 05:57:50;;;;;;;13.63;4.32;;;10.10;99.90;;;;;;5072718;28;20029;-76
2023/09/30 06:00:23;;;;;;;6.97;3.85;;;10.10;99.90;;;;;;5071876;28;20029;-75
2023/09/30 06:02:51;;;;;;;7.53;3.15;;;10.20;99.90;;;;;;5072555;28;20234;-75
2023/09/30 06:05:18;;;;;;;8.32;3.97;;;10.20;99.90;;;;;;5071398;28;20074;-76
2023/09/30 06:07:45;;;;;;;6.93;3.38;;;10.20;99.90;;;;;;5072192;28;20256;-75
2023/09/30 06:10:12;;;;;;;9.20;3.30;;;10.20;99.90;;;;;;5072233;28;20116;-75
2023/09/30 06:12:38;;;;;;;8.80;3.33;;;10.30;99.90;;;;;;5071524;28;20023;-76
2023/09/30 06:15:04;;;;;;;7.28;3.30;;;10.30;99.90;;;;;;5072160;28;20028;-76
2023/09/30 06:17:33;;;;;;;5.97;2.97;;;10.20;99.90;;;;;;5071282;28;20047;-77
2023/09/30 06:20:07;;;;;;;6.50;2.90;;;10.30;99.90;;;;;;5072006;28;20040;-77
2023/09/30 06:22:32;;;;;;;8.32;3.20;;;10.30;99.90;;;;;;5071736;28;20055;-76
2023/09/30 06:24:58;;;;;;;5.63;3.05;;;10.30;99.90;;;;;;5071850;28;20063;-77
2023/09/30 06:27:24;;;;;;;7.20;3.20;;;10.30;99.90;;;;;;5070759;28;20033;-76
2023/09/30 06:29:50;;;;;;;5.32;2.80;;;10.30;99.90;;;;;;5072225;28;20434;-77
2023/09/30 06:32:15;;;;;;;14.60;4.13;;;10.40;99.90;;;;;;5071221;28;20379;-78
2023/09/30 06:34:41;;;;;;;7.32;3.00;;;10.40;99.90;;;;;;5053778;28;20062;-77
2023/09/30 06:37:08;;;;;;;7.57;3.25;;;10.40;99.90;;;;;;5071162;28;20024;-77
2023/09/30 06:39:34;;;;;;;7.18;4.03;;;10.40;99.90;;;;;;5071101;28;20063;-77
2023/09/30 06:42:00;;;;;;;7.47;2.95;;;10.40;99.90;;;;;;5071443;28;20049;-77
2023/09/30 06:44:25;;;;;;;6.57;2.80;;;10.50;99.90;;;;;;5070888;28;20028;-76
2023/09/30 06:46:51;;;;;;;7.22;2.40;;;10.50;99.90;;;;;;5070644;28;20049;-77
2023/09/30 06:49:17;;;;;;;6.13;2.80;;;10.50;99.90;;;;;;5052799;28;20040;-78
2023/09/30 06:51:43;;;;;;;5.15;2.38;;;10.50;99.90;;;;;;5071022;28;20111;-77
2023/09/30 06:54:09;;;;;;;5.25;2.53;;;10.50;99.90;;;;;;5071250;28;20060;-77
2023/09/30 06:56:34;;;;;;;6.10;2.92;;;10.60;99.90;;;;;;5070418;28;20052;-77
2023/09/30 06:59:01;;;;;;;5.40;2.70;;;10.60;99.90;;;;;;5071349;28;20503;-76
2023/09/30 07:01:27;;;;;;;6.63;2.78;;;10.60;99.90;;;;;;5070255;28;20050;-76
2023/09/30 07:03:52;;;;;;;5.00;2.60;;;10.60;99.90;;;;;;5071058;28;20107;-76
2023/09/30 07:06:25;;;;;;;3.83;2.33;;;10.70;99.90;;;;;;5070244;28;20048;-77
2023/09/30 07:08:51;;;;;;;6.07;2.30;;;10.70;99.90;;;;;;5070816;28;20075;-76
2023/09/30 07:11:17;;;;;;;6.05;2.17;;;10.70;99.90;;;;;;5070438;28;20180;-77
2023/09/30 07:13:42;;;;;;;7.82;2.90;;;10.70;99.90;;;;;;5052680;28;20107;-75
2023/09/30 07:16:08;;;;;;;6.80;2.28;;;10.70;99.90;;;;;;5070460;28;20048;-75
2023/09/30 07:18:34;;;;;;;7.78;3.10;;;10.70;99.90;;;;;;5069906;28;20035;-76
2023/09/30 07:20:59;;;;;;;7.25;1.98;;;10.70;99.90;;;;;;5070812;28;20115;-76
2023/09/30 07:23:25;;;;;;;10.13;3.00;;;10.80;99.90;;;;;;5070235;28;20031;-77
2023/09/30 07:25:51;;;;;;;7.30;2.88;;;10.80;99.90;;;;;;5070314;28;20036;-77
2023/09/30 07:28:17;;;;;;;5.05;2.88;;;10.80;99.90;;;;;;5070691;28;20047;-77
2023/09/30 07:30:44;;;;;;;7.68;2.70;;;10.90;99.90;;;;;;5070431;28;20028;-76
2023/09/30 07:33:09;;;;;;;5.85;2.65;;;10.90;99.90;;;;;;5070622;28;20117;-76
2023/09/30 07:35:35;;;;;;;6.75;2.70;;;10.90;99.90;;;;;;5069919;28;20435;-76
2023/09/30 07:38:03;;;;;;;7.03;2.50;;;11.00;99.90;;;;;;5070685;28;20028;-77
2023/09/30 07:40:29;;;;;;;7.32;2.67;;;11.00;99.90;;;;;;5070169;28;20028;-77
2023/09/30 07:42:56;;;;;;;7.90;2.33;;;11.00;99.90;;;;;;5070701;28;20020;-77
2023/09/30 07:45:22;;;;;;;6.40;2.42;;;11.00;99.90;;;;;;5069396;28;20107;-75
2023/09/30 07:47:49;;;;;;;6.00;2.80;;;11.00;99.90;;;;;;5070315;28;20044;-76
2023/09/30 07:50:14;;;;;;;7.78;2.65;;;11.10;99.90;;;;;;5070364;28;20340;-76
2023/09/30 07:52:41;;;;;;;5.35;2.25;;;11.10;99.90;;;;;;5069512;28;20031;-76
2023/09/30 07:55:08;;;;;;;6.55;2.63;;;11.20;99.90;;;;;;5070767;28;20029;-77
2023/09/30 07:57:34;;;;;;;4.13;2.58;;;11.20;99.90;;;;;;5069803;28;20169;-78
2023/09/30 08:00:00;;;;;;;8.27;2.70;;;11.20;99.90;;;;;;5070237;28;20118;-78
2023/09/30 08:02:32;;;;;;;7.70;2.78;;;11.30;99.90;;;;;;5069406;28;20090;-78
2023/09/30 08:04:59;;;;;;;5.45;3.13;;;11.30;99.90;;;;;;5070770;28;20086;-78
2023/09/30 08:07:25;;;;;;;8.55;2.78;;;11.30;99.90;;;;;;5069641;28;20061;-77
2023/09/30 08:09:51;;;;;;;4.32;2.38;;;11.40;99.90;;;;;;5070100;28;20215;-78
2023/09/30 08:12:16;;;;;;;6.40;2.72;;;11.40;99.90;;;;;;5051963;28;20471;-78
2023/09/30 08:14:44;;;;;;;7.30;2.65;;;11.50;99.90;;;;;;5070287;28;20107;-77
2023/09/30 08:17:10;;;;;;;7.13;2.55;;;11.40;99.90;;;;;;5070617;28;20052;-78
2023/09/30 08:19:37;;;;;;;7.50;2.50;;;11.50;99.90;;;;;;5069493;28;20048;-77
2023/09/30 08:22:03;;;;;;;5.32;2.63;;;11.50;99.90;;;;;;5069979;28;20078;-79
2023/09/30 08:24:29;;;;;;;5.95;3.20;;;11.50;99.90;;;;;;5070079;28;20485;-77
2023/09/30 08:26:56;;;;;;;6.10;2.80;;;11.60;99.90;;;;;;5070333;28;20454;-77
2023/09/30 08:29:22;;;;;;;6.22;3.10;;;11.60;99.90;;;;;;5070079;28;20040;-78
2023/09/30 08:31:50;;;;;;;6.63;2.72;;;11.60;99.90;;;;;;5070620;28;20039;-77
2023/09/30 08:34:17;;;;;;;6.93;2.65;;;11.60;99.90;;;;;;5052537;28;20096;-78
2023/09/30 08:36:43;;;;;;;7.15;2.47;;;11.70;99.90;;;;;;5069328;28;20601;-78
2023/09/30 08:39:12;;;;;;;7.88;2.72;;;11.70;99.90;;;;;;5070558;28;20077;-77
2023/09/30 08:41:38;;;;;;;7.43;3.00;;;11.80;99.90;;;;;;5070035;28;20031;-78
2023/09/30 08:44:04;;;;;;;8.93;3.60;;;11.90;99.90;;;;;;5069853;28;20025;-78
2023/09/30 08:46:34;;;;;;;9.20;4.03;;;11.90;99.90;;;;;;5069566;28;20098;-77
2023/09/30 08:49:05;;;;;;;7.53;3.38;;;12.00;99.90;;;;;;5070023;28;20040;-77
2023/09/30 08:51:32;;;;;;;13.32;3.67;;;12.00;99.90;;;;;;5069541;28;20024;-77
2023/09/30 08:53:59;;;;;;;11.40;3.58;;;12.10;99.90;;;;;;5069989;28;20324;-77
2023/09/30 08:56:28;;;;;;;10.20;2.88;;;12.10;99.90;;;;;;5052318;28;20029;-78
2023/09/30 08:59:03;;;;;;;8.20;2.80;;;12.20;99.90;;;;;;5074099;28;20121;-78
2023/09/30 09:01:30;;;;;;;11.82;3.63;;;12.20;99.90;;;;;;5073562;28;20025;-77
2023/09/30 09:03:56;;;;;;;7.18;2.45;;;12.40;99.90;;;;;;5074364;28;20124;-77
2023/09/30 09:06:24;;;;;;;6.90;2.42;;;12.40;99.90;;;;;;5074585;28;20518;-79
2023/09/30 09:08:50;;;;;;;5.88;2.10;;;12.50;99.90;;;;;;5073929;28;20032;-78
2023/09/30 09:11:17;;;;;;;8.20;2.35;;;12.70;99.90;;;;;;5073859;28;20477;-78
2023/09/30 09:13:50;;;;;;;4.68;2.17;;;12.70;99.90;;;;;;5072711;28;20093;-78
2023/09/30 09:16:17;;;;;;;;;;;12.80;99.90;;;;;;5073885;28;20459;-78
2023/09/30 09:18:43;;;;;;;4.10;1.75;;;12.80;99.90;;;;;;5072383;28;20643;-78
2023/09/30 09:21:14;;;;;;;6.53;2.00;;;12.90;99.90;;;;;;5073189;28;20028;-79
2023/09/30 09:23:44;;;;;;;10.95;2.47;;;13.00;99.90;;;;;;5072139;28;20021;-78
2023/09/30 09:26:34;;;;;;;10.90;2.63;;;13.00;99.90;;;;;;5055173;28;20074;-79
2023/09/30 09:29:03;;;;;;;5.55;2.17;;;13.00;99.90;;;;;;5072577;28;20047;-78
2023/09/30 09:31:30;;;;;;;9.10;2.13;;;13.00;99.90;;;;;;5054456;28;20021;-80
2023/09/30 09:33:57;;;;;;;7.63;1.95;;;13.10;99.90;;;;;;5072887;28;20035;-78
2023/09/30 09:36:44;;;;;;;6.57;2.03;;;13.00;99.90;;;;;;5073002;28;20020;-78
2023/09/30 09:39:14;;;;;;;4.10;1.77;;;13.00;99.90;;;;;;5072511;28;20028;-78
2023/09/30 09:41:53;;;;;;;7.70;2.05;;;13.10;99.90;;;;;;5071972;28;20043;-78
2023/09/30 09:44:23;;;;;;;4.57;1.60;;;13.10;99.90;;;;;;5073366;28;20024;-78
2023/09/30 09:46:50;;;;;;;5.97;1.92;;;13.00;99.90;;;;;;5072356;28;20048;-77
2023/09/30 09:49:20;;;;;;;5.57;1.80;;;13.00;99.90;;;;;;5071887;28;20067;-77
2023/09/30 09:51:47;;;;;;;8.32;2.05;;;13.10;99.90;;;;;;5071621;28;20459;-77
2023/09/30 09:54:14;;;;;;;6.70;2.15;;;13.10;99.90;;;;;;5072141;28;20029;-78
2023/09/30 09:56:40;;;;;;;7.80;2.55;;;13.10;99.90;;;;;;5071551;28;20158;-80
2023/09/30 09:59:07;;;;;;;6.93;2.17;;;13.10;99.90;;;;;;5071775;28;20036;-79
2023/09/30 10:01:34;;;;;;;8.88;2.08;;;13.10;99.90;;;;;;5071028;28;20031;-77
2023/09/30 10:04:01;;;;;;;8.40;2.53;;;13.20;99.90;;;;;;5071614;28;20206;-77
2023/09/30 10:06:28;;;;;;;6.78;2.15;;;13.10;99.90;;;;;;5071096;28;20016;-78
2023/09/30 10:08:57;;;;;;;7.00;2.58;;;13.20;99.90;;;;;;5070709;28;20435;-77
2023/09/30 10:11:23;;;;;;;8.38;2.22;;;13.10;99.90;;;;;;5071296;28;20103;-77
2023/09/30 10:13:57;;;;;;;8.15;2.47;;;13.10;99.90;;;;;;5071258;28;20035;-77
2023/09/30 10:16:35;;;;;;;8.98;2.90;;;13.20;99.90;;;;;;5071545;28;20028;-78
2023/09/30 10:19:12;;;;;;;10.90;2.35;;;13.10;99.90;;;;;;5070953;28;20033;-79
2023/09/30 10:21:39;;;;;;;7.20;2.03;;;13.10;99.90;;;;;;5053284;28;20025;-81
2023/09/30 10:24:23;;;;;;;7.35;2.72;;;13.10;99.90;;;;;;5071834;28;20028;-81
2023/09/30 10:27:31;;;;;;;10.93;2.80;;;13.10;99.90;;;;;;5071426;28;20660;-80
2023/09/30 10:30:10;;;;;;;9.52;2.75;;;13.10;99.90;;;;;;5054082;28;20033;-80
2023/09/30 10:32:51;;;;;;;12.48;2.78;;;13.10;99.90;;;;;;5071346;28;20029;-80
2023/09/30 10:35:18;;;;;;;10.77;2.72;;;13.00;99.90;;;;;;5071871;28;20056;-82
2023/09/30 10:37:46;;;;;;;10.95;2.95;;;13.00;99.90;;;;;;5071546;28;20029;-86
2023/09/30 10:40:28;;;;;;;9.77;2.72;;;13.00;99.90;;;;;;5071075;28;20036;-83
2023/09/30 10:42:57;;;;;;;14.70;3.90;;;13.10;99.90;;;;;;5054311;28;20039;-82
2023/09/30 10:45:42;;;;;;;14.07;3.25;;;13.10;99.90;;;;;;5071480;28;20024;-81
2023/09/30 10:48:41;;;;;;;21.08;3.47;;;13.00;99.90;;;;;;5071356;28;20048;-82
2023/09/30 10:51:23;;;;;;;13.85;2.75;;;13.10;99.90;;;;;;5016533;28;20047;-79
2023/09/30 10:53:56;;;;;;;9.40;2.72;;;13.10;99.90;;;;;;5070691;28;20102;-80
2023/09/30 10:56:24;;;;;;;18.25;3.42;;;13.20;99.90;;;;;;5071282;28;20032;-81
2023/09/30 10:58:51;;;;;;;8.73;2.85;;;13.20;99.90;;;;;;5052632;28;20039;-80
2023/09/30 11:01:19;;;;;;;11.35;2.97;;;13.20;99.90;;;;;;5071540;28;20074;-82
2023/09/30 11:03:46;;;;;;;16.90;3.53;;;13.20;99.90;;;;;;5070851;28;20017;-82
2023/09/30 11:06:20;;;;;;;11.07;2.65;;;13.20;99.90;;;;;;5053377;28;20025;-81
2023/09/30 11:09:00;;;;;;;9.80;2.47;;;13.30;99.90;;;;;;5052719;28;20064;-81
2023/09/30 11:11:36;;;;;;;13.15;3.13;;;13.20;99.90;;;;;;5071022;28;20103;-82
2023/09/30 11:14:02;;;;;;;6.65;2.78;;;13.30;99.90;;;;;;5071143;28;20101;-80
2023/09/30 11:16:28;;;;;;;9.80;3.20;;;13.20;99.90;;;;;;5071201;28;20104;-80
2023/09/30 11:18:54;;;;;;;9.05;3.13;;;13.10;99.90;;;;;;5069734;28;20191;-80
2023/09/30 11:21:22;;;;;;;14.65;3.95;;;13.10;99.90;;;;;;5052505;28;20032;-80
2023/09/30 11:23:48;;;;;;;8.02;3.35;;;13.00;99.90;;;;;;5070892;28;20040;-81
2023/09/30 11:26:14;;;;;;;9.18;4.13;;;13.00;99.90;;;;;;5071017;28;20036;-80
2023/09/30 11:28:42;;;;;;;10.10;3.83;;;13.00;99.90;;;;;;5070408;28;20032;-80
2023/09/30 11:31:10;;;;;;;8.55;4.00;;;12.90;99.90;;;;;;5071200;28;20024;-82
2023/09/30 11:33:56;;;;;;;7.85;3.67;;;12.90;99.90;;;;;;5071336;28;20509;-81
2023/09/30 11:36:23;;;;;;;9.18;3.35;;;12.90;99.90;;;;;;5070776;28;20427;-85
2023/09/30 11:38:52;;;;;;;10.48;3.50;;;12.90;99.90;;;;;;5052577;28;20032;-83
2023/09/30 11:41:18;;;;;;;6.03;2.83;;;12.80;99.90;;;;;;5052900;28;20024;-82
2023/09/30 11:44:10;;;;;;;6.90;3.22;;;12.90;99.90;;;;;;5070932;28;20151;-85
2023/09/30 11:46:51;;;;;;;6.25;3.45;;;12.90;99.90;;;;;;5070559;28;20061;-85
2023/09/30 11:49:31;;;;;;;7.72;3.35;;;12.90;99.90;;;;;;5070498;28;20050;-87
2023/09/30 11:52:06;;;;;;;8.48;3.63;;;12.90;99.90;;;;;;5071023;28;20043;-88
2023/09/30 11:54:43;;;;;;;12.45;4.00;;;12.90;99.90;;;;;;5070600;28;20021;-90
2023/09/30 11:57:15;;;;;;;15.32;4.30;;;12.90;99.90;;;;;;5071069;28;20021;-81
2023/09/30 11:59:41;;;;;;;12.40;4.72;;;13.00;99.90;;;;;;5070557;28;20482;-82
2023/09/30 12:02:11;;;;;;;12.80;4.47;;;12.90;99.90;;;;;;5069723;28;20032;-82
2023/09/30 12:04:38;;;;;;;15.10;4.38;;;12.90;99.90;;;;;;5070061;28;20534;-83
2023/09/30 12:07:04;;;;;;;9.65;3.95;;;12.80;99.90;;;;;;5068938;28;20371;-85
2023/09/30 12:09:31;;;;;;;8.88;3.80;;;12.80;99.90;;;;;;5072791;28;20111;-85
2023/09/30 12:11:57;;;;;;;7.18;3.63;;;12.80;99.90;;;;;;5052894;28;20024;-84
2023/09/30 12:14:24;;;;;;;8.13;3.97;;;12.80;99.90;;;;;;5053338;28;20090;-85
2023/09/30 12:16:50;;;;;;;8.63;3.58;;;12.80;99.90;;;;;;5072167;28;20146;-83
2023/09/30 12:19:20;;;;;;;7.55;3.20;;;12.80;99.90;;;;;;5052875;28;20035;-82
2023/09/30 12:21:47;;;;;;;8.05;3.67;;;12.80;99.90;;;;;;5072284;28;20386;-84
2023/09/30 12:24:19;;;;;;;6.22;3.05;;;12.80;99.90;;;;;;5055033;28;20044;-85
2023/09/30 12:26:49;;;;;;;9.02;3.83;;;12.80;99.90;;;;;;5071750;28;20076;-84
2023/09/30 12:29:17;;;;;;;8.18;3.10;;;12.70;99.90;;;;;;5070421;28;20036;-79
2023/09/30 12:31:46;;;;;;;6.65;2.63;;;12.70;99.90;;;;;;5071957;28;20493;-79
2023/09/30 12:34:13;;;;;;;6.05;3.17;;;12.80;99.90;;;;;;5073719;28;20031;-80
2023/09/30 12:36:42;;;;;;;5.18;2.65;;;12.80;99.90;;;;;;5055071;28;20111;-78
2023/09/30 12:39:12;;;;;;;5.45;2.65;;;12.90;99.90;;;;;;5055505;28;20116;-78
2023/09/30 12:41:42;;;;;;;3.92;2.05;;;12.90;99.90;;;;;;5073068;28;20074;-79
2023/09/30 12:44:09;;;;;;;5.70;1.92;;;12.80;99.90;;;;;;5076317;28;20036;-86
2023/09/30 12:46:36;;;;;;;3.28;1.48;;;12.90;99.90;;;;;;5076403;28;20115;-85
2023/09/30 12:49:03;;;;;;;6.00;2.03;;;12.90;99.90;;;;;;5074253;28;20060;-81